sensor_id;sensor_type;location;lat;lon;timestamp;pressure;altitude;pressure_sealevel;temperature
22322;BMP180;11328;53.928;18.522;2022-08-21T00:01:42;100035.00;;;24.80
22322;BMP180;11328;53.928;18.522;2022-08-21T00:04:10;100043.00;;;24.70
22322;BMP180;11328;53.928;18.522;2022-08-21T00:06:40;100052.00;;;24.60
22322;BMP180;11328;53.928;18.522;2022-08-21T00:09:09;100050.00;;;24.40
22322;BMP180;11328;53.928;18.522;2022-08-21T00:11:40;100040.00;;;24.30
22322;BMP180;11328;53.928;18.522;2022-08-21T00:14:09;100051.00;;;24.30
22322;BMP180;11328;53.928;18.522;2022-08-21T00:16:37;100059.00;;;24.10
22322;BMP180;11328;53.928;18.522;2022-08-21T00:19:06;100054.00;;;23.90
22322;BMP180;11328;53.928;18.522;2022-08-21T00:21:35;100058.00;;;23.80
22322;BMP180;11328;53.928;18.522;2022-08-21T00:24:03;100059.00;;;23.80
22322;BMP180;11328;53.928;18.522;2022-08-21T00:26:30;100055.00;;;24.00
22322;BMP180;11328;53.928;18.522;2022-08-21T00:28:57;100052.00;;;24.10
22322;BMP180;11328;53.928;18.522;2022-08-21T00:31:25;100053.00;;;24.00
22322;BMP180;11328;53.928;18.522;2022-08-21T00:33:52;100058.00;;;24.00
22322;BMP180;11328;53.928;18.522;2022-08-21T00:36:27;100047.00;;;23.90
22322;BMP180;11328;53.928;18.522;2022-08-21T00:38:54;100053.00;;;23.80
22322;BMP180;11328;53.928;18.522;2022-08-21T00:41:21;100043.00;;;23.70
22322;BMP180;11328;53.928;18.522;2022-08-21T00:44:08;100021.00;;;23.60
22322;BMP180;11328;53.928;18.522;2022-08-21T00:46:37;100010.00;;;23.70
22322;BMP180;11328;53.928;18.522;2022-08-21T00:49:07;100021.00;;;23.50
22322;BMP180;11328;53.928;18.522;2022-08-21T00:51:55;100012.00;;;23.40
22322;BMP180;11328;53.928;18.522;2022-08-21T00:54:28;100014.00;;;23.50
22322;BMP180;11328;53.928;18.522;2022-08-21T00:57:03;100010.00;;;23.60
22322;BMP180;11328;53.928;18.522;2022-08-21T00:59:36;100016.00;;;23.70
22322;BMP180;11328;53.928;18.522;2022-08-21T01:02:06;100017.00;;;23.80
22322;BMP180;11328;53.928;18.522;2022-08-21T01:04:34;100023.00;;;23.70
22322;BMP180;11328;53.928;18.522;2022-08-21T01:07:02;100029.00;;;23.80
22322;BMP180;11328;53.928;18.522;2022-08-21T01:09:29;100019.00;;;23.80
22322;BMP180;11328;53.928;18.522;2022-08-21T01:11:57;100018.00;;;23.80
22322;BMP180;11328;53.928;18.522;2022-08-21T01:14:24;100012.00;;;23.80
22322;BMP180;11328;53.928;18.522;2022-08-21T01:16:53;100016.00;;;23.70
22322;BMP180;11328;53.928;18.522;2022-08-21T01:19:22;100010.00;;;23.60
22322;BMP180;11328;53.928;18.522;2022-08-21T01:21:49;99993.00;;;23.70
22322;BMP180;11328;53.928;18.522;2022-08-21T01:24:16;100005.00;;;23.80
22322;BMP180;11328;53.928;18.522;2022-08-21T01:26:44;99997.00;;;24.00
22322;BMP180;11328;53.928;18.522;2022-08-21T01:29:19;99994.00;;;24.10
22322;BMP180;11328;53.928;18.522;2022-08-21T01:31:49;99992.00;;;24.10
22322;BMP180;11328;53.928;18.522;2022-08-21T01:34:18;99984.00;;;24.00
22322;BMP180;11328;53.928;18.522;2022-08-21T01:36:46;99975.00;;;23.70
22322;BMP180;11328;53.928;18.522;2022-08-21T01:39:14;99963.00;;;23.60
22322;BMP180;11328;53.928;18.522;2022-08-21T01:41:42;99969.00;;;23.70
22322;BMP180;11328;53.928;18.522;2022-08-21T01:44:09;99976.00;;;23.80
22322;BMP180;11328;53.928;18.522;2022-08-21T01:46:36;99979.00;;;23.80
22322;BMP180;11328;53.928;18.522;2022-08-21T01:49:05;99968.00;;;23.70
22322;BMP180;11328;53.928;18.522;2022-08-21T01:51:32;99976.00;;;23.70
22322;BMP180;11328;53.928;18.522;2022-08-21T01:54:00;99975.00;;;23.50
22322;BMP180;11328;53.928;18.522;2022-08-21T01:56:27;99959.00;;;23.50
22322;BMP180;11328;53.928;18.522;2022-08-21T01:58:55;99963.00;;;23.50
22322;BMP180;11328;53.928;18.522;2022-08-21T02:01:22;99964.00;;;23.50
22322;BMP180;11328;53.928;18.522;2022-08-21T02:03:49;99965.00;;;23.30
22322;BMP180;11328;53.928;18.522;2022-08-21T02:06:16;99969.00;;;23.20
22322;BMP180;11328;53.928;18.522;2022-08-21T02:08:46;99973.00;;;23.10
22322;BMP180;11328;53.928;18.522;2022-08-21T02:11:13;99968.00;;;23.00
22322;BMP180;11328;53.928;18.522;2022-08-21T02:13:40;99976.00;;;22.90
22322;BMP180;11328;53.928;18.522;2022-08-21T02:16:10;99981.00;;;22.90
22322;BMP180;11328;53.928;18.522;2022-08-21T02:18:39;99976.00;;;23.00
22322;BMP180;11328;53.928;18.522;2022-08-21T02:21:06;99978.00;;;23.00
22322;BMP180;11328;53.928;18.522;2022-08-21T02:23:34;99976.00;;;22.90
22322;BMP180;11328;53.928;18.522;2022-08-21T02:26:04;99985.00;;;23.00
22322;BMP180;11328;53.928;18.522;2022-08-21T02:28:34;99970.00;;;23.10
22322;BMP180;11328;53.928;18.522;2022-08-21T02:31:02;99980.00;;;23.10
22322;BMP180;11328;53.928;18.522;2022-08-21T02:33:30;99973.00;;;23.10
22322;BMP180;11328;53.928;18.522;2022-08-21T02:35:57;99974.00;;;23.10
22322;BMP180;11328;53.928;18.522;2022-08-21T02:38:29;99971.00;;;23.10
22322;BMP180;11328;53.928;18.522;2022-08-21T02:40:57;99975.00;;;23.10
22322;BMP180;11328;53.928;18.522;2022-08-21T02:43:27;99971.00;;;23.10
22322;BMP180;11328;53.928;18.522;2022-08-21T02:45:57;99973.00;;;23.10
22322;BMP180;11328;53.928;18.522;2022-08-21T02:48:30;99970.00;;;23.20
22322;BMP180;11328;53.928;18.522;2022-08-21T02:51:18;99968.00;;;23.30
22322;BMP180;11328;53.928;18.522;2022-08-21T02:53:49;99968.00;;;23.30
22322;BMP180;11328;53.928;18.522;2022-08-21T02:56:20;99963.00;;;23.40
22322;BMP180;11328;53.928;18.522;2022-08-21T02:58:51;99960.00;;;23.50
22322;BMP180;11328;53.928;18.522;2022-08-21T03:01:20;99958.00;;;23.50
22322;BMP180;11328;53.928;18.522;2022-08-21T03:03:47;99952.00;;;23.40
22322;BMP180;11328;53.928;18.522;2022-08-21T03:06:21;99955.00;;;23.40
22322;BMP180;11328;53.928;18.522;2022-08-21T03:08:49;99950.00;;;23.30
22322;BMP180;11328;53.928;18.522;2022-08-21T03:11:16;99954.00;;;23.30
22322;BMP180;11328;53.928;18.522;2022-08-21T03:13:44;99948.00;;;23.20
22322;BMP180;11328;53.928;18.522;2022-08-21T03:16:11;99949.00;;;23.20
22322;BMP180;11328;53.928;18.522;2022-08-21T03:18:38;99947.00;;;23.20
22322;BMP180;11328;53.928;18.522;2022-08-21T03:21:06;99949.00;;;23.20
22322;BMP180;11328;53.928;18.522;2022-08-21T03:23:33;99944.00;;;23.40
22322;BMP180;11328;53.928;18.522;2022-08-21T03:26:00;99937.00;;;23.40
22322;BMP180;11328;53.928;18.522;2022-08-21T03:28:28;99946.00;;;23.40
22322;BMP180;11328;53.928;18.522;2022-08-21T03:30:55;99944.00;;;23.30
22322;BMP180;11328;53.928;18.522;2022-08-21T03:33:22;99949.00;;;23.30
22322;BMP180;11328;53.928;18.522;2022-08-21T03:36:04;99933.00;;;23.40
22322;BMP180;11328;53.928;18.522;2022-08-21T03:38:33;99951.00;;;23.50
22322;BMP180;11328;53.928;18.522;2022-08-21T03:41:01;99956.00;;;23.50
22322;BMP180;11328;53.928;18.522;2022-08-21T03:43:29;99963.00;;;23.40
22322;BMP180;11328;53.928;18.522;2022-08-21T03:46:00;99968.00;;;23.40
22322;BMP180;11328;53.928;18.522;2022-08-21T03:48:28;99968.00;;;23.50
22322;BMP180;11328;53.928;18.522;2022-08-21T03:50:55;99960.00;;;23.50
22322;BMP180;11328;53.928;18.522;2022-08-21T03:53:23;99964.00;;;23.50
22322;BMP180;11328;53.928;18.522;2022-08-21T03:55:52;99955.00;;;23.50
22322;BMP180;11328;53.928;18.522;2022-08-21T03:58:23;99960.00;;;23.40
22322;BMP180;11328;53.928;18.522;2022-08-21T04:00:55;99960.00;;;23.50
22322;BMP180;11328;53.928;18.522;2022-08-21T04:03:22;99940.00;;;23.50
22322;BMP180;11328;53.928;18.522;2022-08-21T04:05:50;99938.00;;;23.40
22322;BMP180;11328;53.928;18.522;2022-08-21T04:08:18;99944.00;;;23.50
22322;BMP180;11328;53.928;18.522;2022-08-21T04:10:50;99951.00;;;23.40
22322;BMP180;11328;53.928;18.522;2022-08-21T04:13:17;99949.00;;;23.40
22322;BMP180;11328;53.928;18.522;2022-08-21T04:15:44;99952.00;;;23.50
22322;BMP180;11328;53.928;18.522;2022-08-21T04:18:12;99959.00;;;23.60
22322;BMP180;11328;53.928;18.522;2022-08-21T04:20:42;99960.00;;;23.60
22322;BMP180;11328;53.928;18.522;2022-08-21T04:23:18;99963.00;;;23.60
22322;BMP180;11328;53.928;18.522;2022-08-21T04:25:52;99959.00;;;23.60
22322;BMP180;11328;53.928;18.522;2022-08-21T04:28:21;99961.00;;;23.50
22322;BMP180;11328;53.928;18.522;2022-08-21T04:30:50;99967.00;;;23.50
22322;BMP180;11328;53.928;18.522;2022-08-21T04:33:20;99953.00;;;23.60
22322;BMP180;11328;53.928;18.522;2022-08-21T04:35:49;99964.00;;;23.70
22322;BMP180;11328;53.928;18.522;2022-08-21T04:38:16;99975.00;;;23.70
22322;BMP180;11328;53.928;18.522;2022-08-21T04:40:43;99971.00;;;23.80
22322;BMP180;11328;53.928;18.522;2022-08-21T04:43:11;99964.00;;;23.80
22322;BMP180;11328;53.928;18.522;2022-08-21T04:45:43;99970.00;;;23.70
22322;BMP180;11328;53.928;18.522;2022-08-21T04:48:14;99966.00;;;23.70
22322;BMP180;11328;53.928;18.522;2022-08-21T04:50:57;99977.00;;;23.70
22322;BMP180;11328;53.928;18.522;2022-08-21T04:53:38;99982.00;;;23.90
22322;BMP180;11328;53.928;18.522;2022-08-21T04:56:32;99980.00;;;24.00
22322;BMP180;11328;53.928;18.522;2022-08-21T04:59:09;99991.00;;;24.10
22322;BMP180;11328;53.928;18.522;2022-08-21T05:01:39;99991.00;;;24.00
22322;BMP180;11328;53.928;18.522;2022-08-21T05:04:11;99997.00;;;24.00
22322;BMP180;11328;53.928;18.522;2022-08-21T05:06:43;100002.00;;;24.20
22322;BMP180;11328;53.928;18.522;2022-08-21T05:09:14;100006.00;;;24.10
22322;BMP180;11328;53.928;18.522;2022-08-21T05:11:42;100011.00;;;24.10
22322;BMP180;11328;53.928;18.522;2022-08-21T05:14:11;100005.00;;;24.10
22322;BMP180;11328;53.928;18.522;2022-08-21T05:16:39;100002.00;;;24.10
22322;BMP180;11328;53.928;18.522;2022-08-21T05:19:08;100006.00;;;24.00
22322;BMP180;11328;53.928;18.522;2022-08-21T05:21:38;100015.00;;;24.10
22322;BMP180;11328;53.928;18.522;2022-08-21T05:24:06;100000.00;;;24.10
22322;BMP180;11328;53.928;18.522;2022-08-21T05:26:33;100018.00;;;24.10
22322;BMP180;11328;53.928;18.522;2022-08-21T05:29:15;100017.00;;;24.00
22322;BMP180;11328;53.928;18.522;2022-08-21T05:31:45;100018.00;;;23.90
22322;BMP180;11328;53.928;18.522;2022-08-21T05:34:18;100008.00;;;24.00
22322;BMP180;11328;53.928;18.522;2022-08-21T05:36:45;99999.00;;;24.10
22322;BMP180;11328;53.928;18.522;2022-08-21T05:39:14;100013.00;;;24.00
22322;BMP180;11328;53.928;18.522;2022-08-21T05:41:41;100012.00;;;24.00
22322;BMP180;11328;53.928;18.522;2022-08-21T05:44:08;100011.00;;;24.00
22322;BMP180;11328;53.928;18.522;2022-08-21T05:46:38;100011.00;;;24.00
22322;BMP180;11328;53.928;18.522;2022-08-21T05:49:05;100014.00;;;24.00
22322;BMP180;11328;53.928;18.522;2022-08-21T05:51:32;100009.00;;;24.00
22322;BMP180;11328;53.928;18.522;2022-08-21T05:53:59;100008.00;;;24.10
22322;BMP180;11328;53.928;18.522;2022-08-21T05:56:26;100010.00;;;24.10
22322;BMP180;11328;53.928;18.522;2022-08-21T05:58:53;100013.00;;;24.10
22322;BMP180;11328;53.928;18.522;2022-08-21T06:01:20;100011.00;;;24.20
22322;BMP180;11328;53.928;18.522;2022-08-21T06:03:47;100012.00;;;24.00
22322;BMP180;11328;53.928;18.522;2022-08-21T06:06:14;100008.00;;;23.80
22322;BMP180;11328;53.928;18.522;2022-08-21T06:08:42;100011.00;;;23.80
22322;BMP180;11328;53.928;18.522;2022-08-21T06:11:09;100004.00;;;23.70
22322;BMP180;11328;53.928;18.522;2022-08-21T06:13:38;100021.00;;;23.90
22322;BMP180;11328;53.928;18.522;2022-08-21T06:16:12;100017.00;;;24.00
22322;BMP180;11328;53.928;18.522;2022-08-21T06:18:44;100018.00;;;24.20
22322;BMP180;11328;53.928;18.522;2022-08-21T06:21:12;100017.00;;;24.20
22322;BMP180;11328;53.928;18.522;2022-08-21T06:23:41;100018.00;;;24.20
22322;BMP180;11328;53.928;18.522;2022-08-21T06:26:10;100013.00;;;24.20
22322;BMP180;11328;53.928;18.522;2022-08-21T06:28:38;100010.00;;;24.10
22322;BMP180;11328;53.928;18.522;2022-08-21T06:31:23;100020.00;;;24.10
22322;BMP180;11328;53.928;18.522;2022-08-21T06:33:51;100032.00;;;24.10
22322;BMP180;11328;53.928;18.522;2022-08-21T06:36:20;100024.00;;;24.00
22322;BMP180;11328;53.928;18.522;2022-08-21T06:38:47;100026.00;;;24.00
22322;BMP180;11328;53.928;18.522;2022-08-21T06:41:18;100028.00;;;23.90
22322;BMP180;11328;53.928;18.522;2022-08-21T06:43:53;100029.00;;;23.80
22322;BMP180;11328;53.928;18.522;2022-08-21T06:46:21;99996.00;;;23.80
22322;BMP180;11328;53.928;18.522;2022-08-21T06:48:48;100036.00;;;23.80
22322;BMP180;11328;53.928;18.522;2022-08-21T06:51:15;100037.00;;;24.00
22322;BMP180;11328;53.928;18.522;2022-08-21T06:53:42;100042.00;;;24.00
22322;BMP180;11328;53.928;18.522;2022-08-21T06:56:09;100038.00;;;23.90
22322;BMP180;11328;53.928;18.522;2022-08-21T06:58:36;100035.00;;;24.00
22322;BMP180;11328;53.928;18.522;2022-08-21T07:01:05;100044.00;;;24.00
22322;BMP180;11328;53.928;18.522;2022-08-21T07:03:39;100040.00;;;24.00
22322;BMP180;11328;53.928;18.522;2022-08-21T07:06:09;100033.00;;;24.00
22322;BMP180;11328;53.928;18.522;2022-08-21T07:08:37;100039.00;;;23.90
22322;BMP180;11328;53.928;18.522;2022-08-21T07:11:14;100031.00;;;23.80
22322;BMP180;11328;53.928;18.522;2022-08-21T07:13:41;100037.00;;;23.90
22322;BMP180;11328;53.928;18.522;2022-08-21T07:16:12;100036.00;;;23.80
22322;BMP180;11328;53.928;18.522;2022-08-21T07:18:39;100027.00;;;23.80
22322;BMP180;11328;53.928;18.522;2022-08-21T07:21:07;100018.00;;;23.90
22322;BMP180;11328;53.928;18.522;2022-08-21T07:23:41;100027.00;;;24.00
22322;BMP180;11328;53.928;18.522;2022-08-21T07:26:10;100030.00;;;24.10
22322;BMP180;11328;53.928;18.522;2022-08-21T07:28:37;100025.00;;;24.20
22322;BMP180;11328;53.928;18.522;2022-08-21T07:31:05;100028.00;;;24.30
22322;BMP180;11328;53.928;18.522;2022-08-21T07:33:34;100018.00;;;24.50
22322;BMP180;11328;53.928;18.522;2022-08-21T07:36:02;100027.00;;;24.50
22322;BMP180;11328;53.928;18.522;2022-08-21T07:38:30;100030.00;;;24.50
22322;BMP180;11328;53.928;18.522;2022-08-21T07:40:59;100032.00;;;24.70
22322;BMP180;11328;53.928;18.522;2022-08-21T07:43:28;100031.00;;;24.50
22322;BMP180;11328;53.928;18.522;2022-08-21T07:45:55;100029.00;;;24.60
22322;BMP180;11328;53.928;18.522;2022-08-21T07:48:23;100041.00;;;24.50
22322;BMP180;11328;53.928;18.522;2022-08-21T07:50:51;100034.00;;;24.50
22322;BMP180;11328;53.928;18.522;2022-08-21T07:53:18;100031.00;;;24.50
22322;BMP180;11328;53.928;18.522;2022-08-21T07:55:45;100034.00;;;24.50
22322;BMP180;11328;53.928;18.522;2022-08-21T07:58:15;100039.00;;;24.60
22322;BMP180;11328;53.928;18.522;2022-08-21T08:00:43;100028.00;;;24.50
22322;BMP180;11328;53.928;18.522;2022-08-21T08:03:10;100022.00;;;24.60
22322;BMP180;11328;53.928;18.522;2022-08-21T08:05:37;100017.00;;;24.50
22322;BMP180;11328;53.928;18.522;2022-08-21T08:08:05;100014.00;;;24.50
22322;BMP180;11328;53.928;18.522;2022-08-21T08:10:33;100012.00;;;24.60
22322;BMP180;11328;53.928;18.522;2022-08-21T08:13:00;100009.00;;;24.40
22322;BMP180;11328;53.928;18.522;2022-08-21T08:15:28;100019.00;;;24.40
22322;BMP180;11328;53.928;18.522;2022-08-21T08:17:59;100017.00;;;24.50
22322;BMP180;11328;53.928;18.522;2022-08-21T08:20:26;100031.00;;;24.60
22322;BMP180;11328;53.928;18.522;2022-08-21T08:22:54;100018.00;;;24.40
22322;BMP180;11328;53.928;18.522;2022-08-21T08:25:24;100025.00;;;24.20
22322;BMP180;11328;53.928;18.522;2022-08-21T08:27:52;100021.00;;;24.10
22322;BMP180;11328;53.928;18.522;2022-08-21T08:30:21;100036.00;;;24.20
22322;BMP180;11328;53.928;18.522;2022-08-21T08:32:50;100026.00;;;24.00
22322;BMP180;11328;53.928;18.522;2022-08-21T08:35:18;100024.00;;;24.00
22322;BMP180;11328;53.928;18.522;2022-08-21T08:37:50;100024.00;;;23.90
22322;BMP180;11328;53.928;18.522;2022-08-21T08:40:30;100028.00;;;23.70
22322;BMP180;11328;53.928;18.522;2022-08-21T08:43:00;100024.00;;;23.80
22322;BMP180;11328;53.928;18.522;2022-08-21T08:45:32;100027.00;;;24.00
22322;BMP180;11328;53.928;18.522;2022-08-21T08:48:06;100021.00;;;24.10
22322;BMP180;11328;53.928;18.522;2022-08-21T08:50:56;100028.00;;;24.10
22322;BMP180;11328;53.928;18.522;2022-08-21T08:53:32;100023.00;;;24.10
22322;BMP180;11328;53.928;18.522;2022-08-21T08:56:01;100035.00;;;24.10
22322;BMP180;11328;53.928;18.522;2022-08-21T08:58:39;100026.00;;;24.20
22322;BMP180;11328;53.928;18.522;2022-08-21T09:01:16;100026.00;;;24.00
22322;BMP180;11328;53.928;18.522;2022-08-21T09:03:47;100028.00;;;23.90
22322;BMP180;11328;53.928;18.522;2022-08-21T09:15:40;100035.00;;;24.30
22322;BMP180;11328;53.928;18.522;2022-08-21T09:27:06;100024.00;;;24.40
22322;BMP180;11328;53.928;18.522;2022-08-21T09:29:45;100027.00;;;24.40
22322;BMP180;11328;53.928;18.522;2022-08-21T09:32:25;100017.00;;;24.50
22322;BMP180;11328;53.928;18.522;2022-08-21T09:35:22;100035.00;;;24.60
22322;BMP180;11328;53.928;18.522;2022-08-21T09:37:56;100034.00;;;24.40
22322;BMP180;11328;53.928;18.522;2022-08-21T09:40:44;100041.00;;;24.20
22322;BMP180;11328;53.928;18.522;2022-08-21T09:45:41;100037.00;;;24.50
22322;BMP180;11328;53.928;18.522;2022-08-21T09:48:23;100032.00;;;24.50
22322;BMP180;11328;53.928;18.522;2022-08-21T09:51:15;100027.00;;;24.60
22322;BMP180;11328;53.928;18.522;2022-08-21T09:59:47;100039.00;;;24.50
22322;BMP180;11328;53.928;18.522;2022-08-21T10:02:33;100042.00;;;24.60
22322;BMP180;11328;53.928;18.522;2022-08-21T10:05:24;100036.00;;;24.50
22322;BMP180;11328;53.928;18.522;2022-08-21T10:07:52;100021.00;;;24.40
22322;BMP180;11328;53.928;18.522;2022-08-21T10:10:23;100038.00;;;24.50
22322;BMP180;11328;53.928;18.522;2022-08-21T10:13:21;100035.00;;;24.40
22322;BMP180;11328;53.928;18.522;2022-08-21T10:17:32;100042.00;;;24.50
22322;BMP180;11328;53.928;18.522;2022-08-21T10:19:49;100044.00;;;24.40
22322;BMP180;11328;53.928;18.522;2022-08-21T10:26:04;100048.00;;;24.50
22322;BMP180;11328;53.928;18.522;2022-08-21T10:32:08;100055.00;;;24.60
22322;BMP180;11328;53.928;18.522;2022-08-21T10:35:13;100064.00;;;24.60
22322;BMP180;11328;53.928;18.522;2022-08-21T10:45:00;100066.00;;;24.10
22322;BMP180;11328;53.928;18.522;2022-08-21T10:47:53;100081.00;;;24.30
22322;BMP180;11328;53.928;18.522;2022-08-21T10:50:33;100075.00;;;24.40
22322;BMP180;11328;53.928;18.522;2022-08-21T10:56:13;100086.00;;;24.40
22322;BMP180;11328;53.928;18.522;2022-08-21T11:08:00;100091.00;;;24.10
22322;BMP180;11328;53.928;18.522;2022-08-21T11:10:40;100085.00;;;24.10
22322;BMP180;11328;53.928;18.522;2022-08-21T11:13:54;100084.00;;;24.20
22322;BMP180;11328;53.928;18.522;2022-08-21T11:16:45;100064.00;;;24.30
22322;BMP180;11328;53.928;18.522;2022-08-21T11:19:24;100087.00;;;24.40
22322;BMP180;11328;53.928;18.522;2022-08-21T11:25:37;100091.00;;;24.40
22322;BMP180;11328;53.928;18.522;2022-08-21T11:28:22;100089.00;;;24.10
22322;BMP180;11328;53.928;18.522;2022-08-21T11:36:18;100098.00;;;23.90
22322;BMP180;11328;53.928;18.522;2022-08-21T11:39:16;100091.00;;;23.80
22322;BMP180;11328;53.928;18.522;2022-08-21T11:42:23;100102.00;;;23.70
22322;BMP180;11328;53.928;18.522;2022-08-21T11:48:42;100100.00;;;23.60
22322;BMP180;11328;53.928;18.522;2022-08-21T11:51:19;100109.00;;;23.50
22322;BMP180;11328;53.928;18.522;2022-08-21T11:59:55;100109.00;;;23.40
22322;BMP180;11328;53.928;18.522;2022-08-21T12:02:31;100112.00;;;23.40
22322;BMP180;11328;53.928;18.522;2022-08-21T12:05:22;100114.00;;;23.20
22322;BMP180;11328;53.928;18.522;2022-08-21T12:08:27;100113.00;;;23.10
22322;BMP180;11328;53.928;18.522;2022-08-21T12:11:22;100110.00;;;23.00
22322;BMP180;11328;53.928;18.522;2022-08-21T12:16:39;100115.00;;;22.80
22322;BMP180;11328;53.928;18.522;2022-08-21T12:19:16;100113.00;;;23.10
22322;BMP180;11328;53.928;18.522;2022-08-21T12:22:12;100104.00;;;23.00
22322;BMP180;11328;53.928;18.522;2022-08-21T12:24:49;100107.00;;;22.90
22322;BMP180;11328;53.928;18.522;2022-08-21T12:28:02;100124.00;;;22.80
22322;BMP180;11328;53.928;18.522;2022-08-21T12:30:41;100116.00;;;22.70
22322;BMP180;11328;53.928;18.522;2022-08-21T12:33:38;100132.00;;;22.50
22322;BMP180;11328;53.928;18.522;2022-08-21T12:36:20;100128.00;;;22.40
22322;BMP180;11328;53.928;18.522;2022-08-21T12:39:05;100137.00;;;22.20
22322;BMP180;11328;53.928;18.522;2022-08-21T12:41:55;100136.00;;;21.90
22322;BMP180;11328;53.928;18.522;2022-08-21T12:45:04;100142.00;;;21.60
22322;BMP180;11328;53.928;18.522;2022-08-21T12:47:48;100148.00;;;21.60
22322;BMP180;11328;53.928;18.522;2022-08-21T12:53:57;100129.00;;;21.40
22322;BMP180;11328;53.928;18.522;2022-08-21T12:56:28;100136.00;;;21.40
22322;BMP180;11328;53.928;18.522;2022-08-21T12:59:04;100125.00;;;21.30
22322;BMP180;11328;53.928;18.522;2022-08-21T13:01:46;100137.00;;;21.10
22322;BMP180;11328;53.928;18.522;2022-08-21T13:04:32;100134.00;;;21.10
22322;BMP180;11328;53.928;18.522;2022-08-21T13:07:00;100135.00;;;21.20
22322;BMP180;11328;53.928;18.522;2022-08-21T13:09:30;100137.00;;;21.20
22322;BMP180;11328;53.928;18.522;2022-08-21T13:11:59;100133.00;;;21.20
22322;BMP180;11328;53.928;18.522;2022-08-21T13:14:41;100128.00;;;21.10
22322;BMP180;11328;53.928;18.522;2022-08-21T13:17:17;100108.00;;;21.00
22322;BMP180;11328;53.928;18.522;2022-08-21T13:20:07;100124.00;;;21.00
22322;BMP180;11328;53.928;18.522;2022-08-21T13:22:41;100121.00;;;21.20
22322;BMP180;11328;53.928;18.522;2022-08-21T13:25:19;100118.00;;;21.10
22322;BMP180;11328;53.928;18.522;2022-08-21T13:28:06;100122.00;;;21.10
22322;BMP180;11328;53.928;18.522;2022-08-21T13:30:34;100129.00;;;21.00
22322;BMP180;11328;53.928;18.522;2022-08-21T13:33:06;100126.00;;;21.00
22322;BMP180;11328;53.928;18.522;2022-08-21T13:38:34;100124.00;;;21.10
22322;BMP180;11328;53.928;18.522;2022-08-21T13:41:35;100129.00;;;20.90
22322;BMP180;11328;53.928;18.522;2022-08-21T13:44:14;100132.00;;;20.90
22322;BMP180;11328;53.928;18.522;2022-08-21T13:46:48;100127.00;;;21.00
22322;BMP180;11328;53.928;18.522;2022-08-21T13:49:22;100139.00;;;20.90
22322;BMP180;11328;53.928;18.522;2022-08-21T13:51:50;100144.00;;;20.90
22322;BMP180;11328;53.928;18.522;2022-08-21T13:54:37;100138.00;;;20.90
22322;BMP180;11328;53.928;18.522;2022-08-21T13:57:29;100134.00;;;21.00
22322;BMP180;11328;53.928;18.522;2022-08-21T14:00:29;100131.00;;;21.10
22322;BMP180;11328;53.928;18.522;2022-08-21T14:03:09;100144.00;;;21.10
22322;BMP180;11328;53.928;18.522;2022-08-21T14:05:45;100136.00;;;20.90
22322;BMP180;11328;53.928;18.522;2022-08-21T14:08:36;100144.00;;;20.90
22322;BMP180;11328;53.928;18.522;2022-08-21T14:11:05;100153.00;;;20.90
22322;BMP180;11328;53.928;18.522;2022-08-21T14:14:02;100146.00;;;20.90
22322;BMP180;11328;53.928;18.522;2022-08-21T14:16:52;100137.00;;;21.10
22322;BMP180;11328;53.928;18.522;2022-08-21T14:19:45;100142.00;;;21.10
22322;BMP180;11328;53.928;18.522;2022-08-21T14:30:35;100158.00;;;21.10
22322;BMP180;11328;53.928;18.522;2022-08-21T14:33:09;100165.00;;;21.00
22322;BMP180;11328;53.928;18.522;2022-08-21T14:35:38;100168.00;;;21.00
22322;BMP180;11328;53.928;18.522;2022-08-21T14:38:21;100176.00;;;21.10
22322;BMP180;11328;53.928;18.522;2022-08-21T14:40:53;100176.00;;;21.00
22322;BMP180;11328;53.928;18.522;2022-08-21T14:43:21;100177.00;;;20.80
22322;BMP180;11328;53.928;18.522;2022-08-21T14:45:48;100163.00;;;20.80
22322;BMP180;11328;53.928;18.522;2022-08-21T14:48:15;100181.00;;;20.80
22322;BMP180;11328;53.928;18.522;2022-08-21T14:50:42;100188.00;;;20.80
22322;BMP180;11328;53.928;18.522;2022-08-21T14:53:09;100170.00;;;20.70
22322;BMP180;11328;53.928;18.522;2022-08-21T14:55:39;100173.00;;;20.80
22322;BMP180;11328;53.928;18.522;2022-08-21T14:58:25;100178.00;;;20.70
22322;BMP180;11328;53.928;18.522;2022-08-21T15:00:54;100183.00;;;20.70
22322;BMP180;11328;53.928;18.522;2022-08-21T15:03:24;100188.00;;;20.80
22322;BMP180;11328;53.928;18.522;2022-08-21T15:05:51;100185.00;;;20.70
22322;BMP180;11328;53.928;18.522;2022-08-21T15:08:18;100190.00;;;20.70
22322;BMP180;11328;53.928;18.522;2022-08-21T15:10:46;100169.00;;;20.60
22322;BMP180;11328;53.928;18.522;2022-08-21T15:13:33;100178.00;;;20.80
22322;BMP180;11328;53.928;18.522;2022-08-21T15:16:01;100182.00;;;21.00
22322;BMP180;11328;53.928;18.522;2022-08-21T15:18:30;100177.00;;;21.00
22322;BMP180;11328;53.928;18.522;2022-08-21T15:20:57;100170.00;;;21.00
22322;BMP180;11328;53.928;18.522;2022-08-21T15:23:24;100181.00;;;21.00
22322;BMP180;11328;53.928;18.522;2022-08-21T15:25:53;100180.00;;;20.90
22322;BMP180;11328;53.928;18.522;2022-08-21T15:28:21;100171.00;;;20.60
22322;BMP180;11328;53.928;18.522;2022-08-21T15:30:50;100179.00;;;20.70
22322;BMP180;11328;53.928;18.522;2022-08-21T15:33:18;100176.00;;;20.80
22322;BMP180;11328;53.928;18.522;2022-08-21T15:35:45;100176.00;;;20.80
22322;BMP180;11328;53.928;18.522;2022-08-21T15:38:14;100174.00;;;20.90
22322;BMP180;11328;53.928;18.522;2022-08-21T15:40:43;100181.00;;;21.00
22322;BMP180;11328;53.928;18.522;2022-08-21T15:43:29;100183.00;;;20.90
22322;BMP180;11328;53.928;18.522;2022-08-21T15:46:01;100187.00;;;21.00
22322;BMP180;11328;53.928;18.522;2022-08-21T15:48:28;100162.00;;;21.00
22322;BMP180;11328;53.928;18.522;2022-08-21T15:50:57;100173.00;;;21.10